sensor_id;sensor_type;location;lat;lon;timestamp;pressure;altitude;pressure_sealevel;temperature;humidity
10115;BME280;5097;43.260;27.812;2023-04-01T00:01:10;99370.59;;;9.06;78.61
10115;BME280;5097;43.260;27.812;2023-04-01T00:03:55;99348.41;;;8.80;78.56
10115;BME280;5097;43.260;27.812;2023-04-01T00:06:39;99359.34;;;8.88;78.28
10115;BME280;5097;43.260;27.812;2023-04-01T00:09:24;99347.28;;;8.84;78.47
10115;BME280;5097;43.260;27.812;2023-04-01T00:12:11;99351.63;;;8.85;78.84
10115;BME280;5097;43.260;27.812;2023-04-01T00:14:55;99352.75;;;8.81;78.06
10115;BME280;5097;43.260;27.812;2023-04-01T00:17:39;99334.09;;;8.69;78.38
10115;BME280;5097;43.260;27.812;2023-04-01T00:20:23;99381.09;;;8.92;78.31
10115;BME280;5097;43.260;27.812;2023-04-01T00:23:07;99331.81;;;8.63;78.88
10115;BME280;5097;43.260;27.812;2023-04-01T00:25:53;99367.63;;;8.82;79.27
10115;BME280;5097;43.260;27.812;2023-04-01T00:28:37;99332.31;;;8.70;79.03
10115;BME280;5097;43.260;27.812;2023-04-01T00:31:21;99331.00;;;8.77;78.61
10115;BME280;5097;43.260;27.812;2023-04-01T00:34:05;99324.91;;;8.77;78.58
10115;BME280;5097;43.260;27.812;2023-04-01T00:36:49;99370.31;;;8.96;78.96
10115;BME280;5097;43.260;27.812;2023-04-01T00:39:34;99309.16;;;8.61;78.88
10115;BME280;5097;43.260;27.812;2023-04-01T00:42:20;99347.16;;;9.01;79.05
10115;BME280;5097;43.260;27.812;2023-04-01T00:45:26;99342.50;;;8.91;79.33
10115;BME280;5097;43.260;27.812;2023-04-01T00:48:13;99298.84;;;8.72;79.14
10115;BME280;5097;43.260;27.812;2023-04-01T00:51:01;99295.78;;;8.64;79.70
10115;BME280;5097;43.260;27.812;2023-04-01T00:53:48;99291.06;;;8.54;79.59
10115;BME280;5097;43.260;27.812;2023-04-01T00:56:35;99328.22;;;8.80;80.90
10115;BME280;5097;43.260;27.812;2023-04-01T00:59:25;99295.19;;;8.89;79.81
10115;BME280;5097;43.260;27.812;2023-04-01T01:02:12;99301.44;;;9.02;78.81
10115;BME280;5097;43.260;27.812;2023-04-01T01:04:56;99327.78;;;9.02;79.42
10115;BME280;5097;43.260;27.812;2023-04-01T01:07:45;99325.13;;;9.02;79.63
10115;BME280;5097;43.260;27.812;2023-04-01T01:10:35;99334.56;;;9.06;80.11
10115;BME280;5097;43.260;27.812;2023-04-01T01:13:27;99263.81;;;8.39;79.68
10115;BME280;5097;43.260;27.812;2023-04-01T01:16:21;99352.34;;;8.72;80.06
10115;BME280;5097;43.260;27.812;2023-04-01T01:19:19;99346.81;;;8.47;82.36
10115;BME280;5097;43.260;27.812;2023-04-01T01:22:33;99270.25;;;7.87;83.19
10115;BME280;5097;43.260;27.812;2023-04-01T01:25:34;99306.41;;;8.16;83.84
10115;BME280;5097;43.260;27.812;2023-04-01T01:28:32;99322.50;;;8.58;81.82
10115;BME280;5097;43.260;27.812;2023-04-01T01:31:23;99313.31;;;8.49;81.91
10115;BME280;5097;43.260;27.812;2023-04-01T01:34:16;99288.81;;;8.32;81.58
10115;BME280;5097;43.260;27.812;2023-04-01T01:37:08;99312.56;;;8.31;82.42
10115;BME280;5097;43.260;27.812;2023-04-01T01:39:58;99314.53;;;8.27;84.07
10115;BME280;5097;43.260;27.812;2023-04-01T01:42:49;99316.59;;;8.68;83.24
10115;BME280;5097;43.260;27.812;2023-04-01T01:45:35;99290.38;;;8.67;81.94
10115;BME280;5097;43.260;27.812;2023-04-01T01:48:23;99326.72;;;8.91;81.23
10115;BME280;5097;43.260;27.812;2023-04-01T01:51:08;99322.69;;;8.99;81.86
10115;BME280;5097;43.260;27.812;2023-04-01T01:53:53;99334.06;;;9.00;81.24
10115;BME280;5097;43.260;27.812;2023-04-01T01:56:38;99328.63;;;9.03;80.75
10115;BME280;5097;43.260;27.812;2023-04-01T01:59:24;99327.34;;;8.80;81.86
10115;BME280;5097;43.260;27.812;2023-04-01T02:02:09;99318.16;;;8.87;81.55
10115;BME280;5097;43.260;27.812;2023-04-01T02:04:54;99307.63;;;8.41;82.62
10115;BME280;5097;43.260;27.812;2023-04-01T02:07:39;99311.88;;;8.59;83.28
10115;BME280;5097;43.260;27.812;2023-04-01T02:10:28;99303.78;;;8.62;82.12
10115;BME280;5097;43.260;27.812;2023-04-01T02:13:19;99303.03;;;8.60;82.79
10115;BME280;5097;43.260;27.812;2023-04-01T02:16:11;99296.81;;;8.61;83.05
10115;BME280;5097;43.260;27.812;2023-04-01T02:18:57;99294.81;;;8.81;82.61
10115;BME280;5097;43.260;27.812;2023-04-01T02:21:42;99293.13;;;8.94;82.59
10115;BME280;5097;43.260;27.812;2023-04-01T02:24:30;99292.59;;;9.03;82.14
10115;BME280;5097;43.260;27.812;2023-04-01T02:27:16;99288.91;;;8.92;82.43
10115;BME280;5097;43.260;27.812;2023-04-01T02:30:02;99295.19;;;8.89;82.94
10115;BME280;5097;43.260;27.812;2023-04-01T02:32:47;99286.16;;;8.93;82.55
10115;BME280;5097;43.260;27.812;2023-04-01T02:35:34;99281.09;;;8.90;82.36
10115;BME280;5097;43.260;27.812;2023-04-01T02:38:18;99282.75;;;8.77;82.20
10115;BME280;5097;43.260;27.812;2023-04-01T02:41:02;99277.00;;;8.70;83.68
10115;BME280;5097;43.260;27.812;2023-04-01T02:43:49;99277.28;;;8.65;82.61
10115;BME280;5097;43.260;27.812;2023-04-01T02:46:33;99260.69;;;8.49;83.80
10115;BME280;5097;43.260;27.812;2023-04-01T02:49:17;99253.56;;;8.51;84.29
10115;BME280;5097;43.260;27.812;2023-04-01T02:52:01;99235.28;;;8.48;84.69
10115;BME280;5097;43.260;27.812;2023-04-01T02:54:45;99252.63;;;8.66;83.60
10115;BME280;5097;43.260;27.812;2023-04-01T02:57:29;99242.97;;;8.67;84.15
10115;BME280;5097;43.260;27.812;2023-04-01T03:00:16;99241.06;;;8.69;84.46
10115;BME280;5097;43.260;27.812;2023-04-01T03:03:00;99204.22;;;8.69;83.56
10115;BME280;5097;43.260;27.812;2023-04-01T03:05:45;99225.00;;;8.88;83.63
10115;BME280;5097;43.260;27.812;2023-04-01T03:08:29;99235.47;;;9.04;83.33
10115;BME280;5097;43.260;27.812;2023-04-01T03:11:13;99220.16;;;8.96;83.37
10115;BME280;5097;43.260;27.812;2023-04-01T03:13:57;99233.03;;;9.15;83.02
10115;BME280;5097;43.260;27.812;2023-04-01T03:16:42;99217.88;;;9.19;82.23
10115;BME280;5097;43.260;27.812;2023-04-01T03:19:27;99227.00;;;9.28;81.95
10115;BME280;5097;43.260;27.812;2023-04-01T03:22:11;99214.50;;;9.02;81.94
10115;BME280;5097;43.260;27.812;2023-04-01T03:24:54;99214.78;;;9.12;82.73
10115;BME280;5097;43.260;27.812;2023-04-01T03:27:38;99210.81;;;9.19;82.93
10115;BME280;5097;43.260;27.812;2023-04-01T03:30:23;99195.13;;;9.03;82.61
10115;BME280;5097;43.260;27.812;2023-04-01T03:33:09;99210.56;;;8.95;83.24
10115;BME280;5097;43.260;27.812;2023-04-01T03:35:52;99209.06;;;9.05;83.39
10115;BME280;5097;43.260;27.812;2023-04-01T03:38:37;99201.31;;;8.88;83.71
10115;BME280;5097;43.260;27.812;2023-04-01T03:41:21;99209.41;;;8.85;84.39
10115;BME280;5097;43.260;27.812;2023-04-01T03:44:05;99200.38;;;8.89;84.58
10115;BME280;5097;43.260;27.812;2023-04-01T03:46:49;99190.59;;;9.05;83.70
10115;BME280;5097;43.260;27.812;2023-04-01T03:49:34;99181.00;;;8.90;83.67
10115;BME280;5097;43.260;27.812;2023-04-01T03:52:18;99186.84;;;8.81;83.77
10115;BME280;5097;43.260;27.812;2023-04-01T03:55:03;99207.34;;;8.90;84.33
10115;BME280;5097;43.260;27.812;2023-04-01T03:57:47;99216.97;;;9.05;83.78
10115;BME280;5097;43.260;27.812;2023-04-01T04:00:33;99180.34;;;9.01;82.72
10115;BME280;5097;43.260;27.812;2023-04-01T04:03:18;99182.78;;;8.75;83.91
10115;BME280;5097;43.260;27.812;2023-04-01T04:06:04;99174.59;;;8.80;83.56
10115;BME280;5097;43.260;27.812;2023-04-01T04:08:48;99221.81;;;9.26;82.28
10115;BME280;5097;43.260;27.812;2023-04-01T04:11:32;99177.44;;;8.77;84.00
10115;BME280;5097;43.260;27.812;2023-04-01T04:14:17;99190.22;;;8.83;83.43
10115;BME280;5097;43.260;27.812;2023-04-01T04:17:02;99181.94;;;8.75;84.09
10115;BME280;5097;43.260;27.812;2023-04-01T04:19:46;99218.25;;;9.27;82.55
10115;BME280;5097;43.260;27.812;2023-04-01T04:22:32;99213.00;;;9.13;83.03
10115;BME280;5097;43.260;27.812;2023-04-01T04:25:19;99213.94;;;9.12;83.37
10115;BME280;5097;43.260;27.812;2023-04-01T04:28:04;99217.50;;;9.25;83.07
10115;BME280;5097;43.260;27.812;2023-04-01T04:30:49;99203.59;;;9.23;83.15
10115;BME280;5097;43.260;27.812;2023-04-01T04:33:34;99193.50;;;9.15;82.50
10115;BME280;5097;43.260;27.812;2023-04-01T04:36:19;99205.44;;;9.21;83.70
10115;BME280;5097;43.260;27.812;2023-04-01T04:39:06;99196.38;;;9.54;82.96
10115;BME280;5097;43.260;27.812;2023-04-01T04:41:55;99177.13;;;9.66;82.08
10115;BME280;5097;43.260;27.812;2023-04-01T04:44:39;99201.72;;;10.34;80.93
10115;BME280;5097;43.260;27.812;2023-04-01T04:47:22;99198.56;;;10.42;80.12
10115;BME280;5097;43.260;27.812;2023-04-01T04:50:08;99193.72;;;10.87;78.53
10115;BME280;5097;43.260;27.812;2023-04-01T04:52:54;99167.00;;;10.92;78.12
10115;BME280;5097;43.260;27.812;2023-04-01T04:55:42;99186.00;;;11.60;77.29
10115;BME280;5097;43.260;27.812;2023-04-01T04:58:36;99196.13;;;12.15;75.81
10115;BME280;5097;43.260;27.812;2023-04-01T05:01:22;99195.94;;;12.18;74.45
10115;BME280;5097;43.260;27.812;2023-04-01T05:04:06;99152.25;;;12.23;73.41
10115;BME280;5097;43.260;27.812;2023-04-01T05:06:50;99140.38;;;12.40;72.27
10115;BME280;5097;43.260;27.812;2023-04-01T05:09:34;99179.81;;;12.32;72.13
10115;BME280;5097;43.260;27.812;2023-04-01T05:12:20;99176.47;;;12.41;72.25
10115;BME280;5097;43.260;27.812;2023-04-01T05:15:15;99185.34;;;12.65;72.61
10115;BME280;5097;43.260;27.812;2023-04-01T05:17:59;99184.50;;;12.76;72.25
10115;BME280;5097;43.260;27.812;2023-04-01T05:20:47;99138.75;;;12.27;71.49
10115;BME280;5097;43.260;27.812;2023-04-01T05:23:32;99179.03;;;12.54;71.96
10115;BME280;5097;43.260;27.812;2023-04-01T05:26:16;99174.81;;;12.52;71.60
10115;BME280;5097;43.260;27.812;2023-04-01T05:29:01;99155.28;;;12.41;70.87
10115;BME280;5097;43.260;27.812;2023-04-01T05:31:45;99158.22;;;12.72;70.81
10115;BME280;5097;43.260;27.812;2023-04-01T05:34:29;99167.63;;;12.65;69.99
10115;BME280;5097;43.260;27.812;2023-04-01T05:37:12;99162.22;;;13.01;68.77
10115;BME280;5097;43.260;27.812;2023-04-01T05:39:56;99160.41;;;13.24;67.77
10115;BME280;5097;43.260;27.812;2023-04-01T05:42:41;99167.53;;;13.46;67.22
10115;BME280;5097;43.260;27.812;2023-04-01T05:45:27;99167.34;;;13.59;66.02
10115;BME280;5097;43.260;27.812;2023-04-01T05:48:26;99156.94;;;13.79;64.88
10115;BME280;5097;43.260;27.812;2023-04-01T05:51:12;99154.63;;;13.74;64.17
10115;BME280;5097;43.260;27.812;2023-04-01T05:53:57;99155.16;;;14.00;64.13
10115;BME280;5097;43.260;27.812;2023-04-01T05:56:41;99151.66;;;14.21;63.11
10115;BME280;5097;43.260;27.812;2023-04-01T05:59:25;99141.56;;;14.57;61.74
10115;BME280;5097;43.260;27.812;2023-04-01T06:02:10;99114.16;;;14.35;61.34
10115;BME280;5097;43.260;27.812;2023-04-01T06:05:02;99125.59;;;15.19;60.89
10115;BME280;5097;43.260;27.812;2023-04-01T06:07:47;99139.69;;;15.50;59.00
10115;BME280;5097;43.260;27.812;2023-04-01T06:10:37;99143.03;;;15.52;58.42
10115;BME280;5097;43.260;27.812;2023-04-01T06:13:31;99141.31;;;15.22;59.02
10115;BME280;5097;43.260;27.812;2023-04-01T06:16:25;99134.31;;;15.21;59.55
10115;BME280;5097;43.260;27.812;2023-04-01T06:19:24;99106.75;;;15.41;58.82
10115;BME280;5097;43.260;27.812;2023-04-01T06:22:32;99137.44;;;15.46;58.73
10115;BME280;5097;43.260;27.812;2023-04-01T06:29:00;99121.50;;;15.05;59.37
10115;BME280;5097;43.260;27.812;2023-04-01T06:35:28;99121.22;;;14.67;60.83
10115;BME280;5097;43.260;27.812;2023-04-01T06:38:24;99072.00;;;14.52;60.61
10115;BME280;5097;43.260;27.812;2023-04-01T06:44:35;99074.16;;;14.89;60.30
10115;BME280;5097;43.260;27.812;2023-04-01T06:47:55;99106.19;;;15.38;59.67
10115;BME280;5097;43.260;27.812;2023-04-01T06:51:25;99102.28;;;15.62;58.93
10115;BME280;5097;43.260;27.812;2023-04-01T06:54:32;99103.03;;;15.83;58.88
10115;BME280;5097;43.260;27.812;2023-04-01T06:57:23;99071.47;;;15.69;58.69
10115;BME280;5097;43.260;27.812;2023-04-01T07:00:13;99111.72;;;15.95;57.89
10115;BME280;5097;43.260;27.812;2023-04-01T07:03:09;99113.25;;;15.88;59.25
10115;BME280;5097;43.260;27.812;2023-04-01T07:05:59;99113.25;;;16.07;58.62
10115;BME280;5097;43.260;27.812;2023-04-01T07:08:48;99124.38;;;16.60;57.81
10115;BME280;5097;43.260;27.812;2023-04-01T07:11:35;99116.66;;;17.32;55.92
10115;BME280;5097;43.260;27.812;2023-04-01T07:14:41;99090.13;;;17.49;54.20
10115;BME280;5097;43.260;27.812;2023-04-01T07:17:29;99109.13;;;17.18;55.88
10115;BME280;5097;43.260;27.812;2023-04-01T07:20:17;99117.06;;;17.00;56.75
10115;BME280;5097;43.260;27.812;2023-04-01T07:23:06;99105.13;;;16.66;56.44
10115;BME280;5097;43.260;27.812;2023-04-01T07:26:19;99090.00;;;16.57;56.97
10115;BME280;5097;43.260;27.812;2023-04-01T07:29:21;99083.03;;;16.36;57.76
10115;BME280;5097;43.260;27.812;2023-04-01T07:32:27;99097.59;;;16.42;57.88
10115;BME280;5097;43.260;27.812;2023-04-01T07:35:23;99101.75;;;16.17;58.11
10115;BME280;5097;43.260;27.812;2023-04-01T07:38:16;99089.47;;;16.53;58.02
10115;BME280;5097;43.260;27.812;2023-04-01T07:41:11;99099.59;;;17.15;56.35
10115;BME280;5097;43.260;27.812;2023-04-01T07:44:07;99045.81;;;16.82;56.82
10115;BME280;5097;43.260;27.812;2023-04-01T07:47:11;99069.00;;;17.37;55.72
10115;BME280;5097;43.260;27.812;2023-04-01T07:50:06;99083.41;;;17.99;54.09
10115;BME280;5097;43.260;27.812;2023-04-01T07:52:59;99079.66;;;17.91;53.79
10115;BME280;5097;43.260;27.812;2023-04-01T07:55:52;99043.34;;;17.81;54.06
10115;BME280;5097;43.260;27.812;2023-04-01T07:58:49;99078.69;;;17.92;54.28
10115;BME280;5097;43.260;27.812;2023-04-01T08:02:14;99057.91;;;18.04;53.43
10115;BME280;5097;43.260;27.812;2023-04-01T08:05:08;99072.16;;;18.13;53.57
10115;BME280;5097;43.260;27.812;2023-04-01T08:08:04;99075.75;;;18.22;53.11
10115;BME280;5097;43.260;27.812;2023-04-01T08:11:41;99037.63;;;18.81;52.59
10115;BME280;5097;43.260;27.812;2023-04-01T08:14:53;99028.34;;;19.01;51.54
10115;BME280;5097;43.260;27.812;2023-04-01T08:18:26;99050.56;;;19.86;50.35
10115;BME280;5097;43.260;27.812;2023-04-01T08:21:20;99044.16;;;19.46;50.83
10115;BME280;5097;43.260;27.812;2023-04-01T08:24:10;99051.81;;;19.16;51.91
10115;BME280;5097;43.260;27.812;2023-04-01T08:26:58;99033.72;;;19.26;51.31
10115;BME280;5097;43.260;27.812;2023-04-01T08:29:48;99024.34;;;19.05;50.50
10115;BME280;5097;43.260;27.812;2023-04-01T08:32:36;99014.44;;;18.63;50.76
10115;BME280;5097;43.260;27.812;2023-04-01T08:35:29;99043.38;;;18.33;51.26
10115;BME280;5097;43.260;27.812;2023-04-01T08:38:20;99040.06;;;18.31;51.50
10115;BME280;5097;43.260;27.812;2023-04-01T08:41:16;99036.72;;;18.37;51.53
10115;BME280;5097;43.260;27.812;2023-04-01T08:44:46;99032.84;;;18.58;52.35
10115;BME280;5097;43.260;27.812;2023-04-01T08:47:46;99027.94;;;18.53;51.99
10115;BME280;5097;43.260;27.812;2023-04-01T08:51:07;99026.38;;;18.69;50.41
10115;BME280;5097;43.260;27.812;2023-04-01T08:54:12;99020.31;;;19.09;51.17
10115;BME280;5097;43.260;27.812;2023-04-01T08:57:06;98988.75;;;18.70;50.12
10115;BME280;5097;43.260;27.812;2023-04-01T09:00:07;99016.72;;;19.52;50.57
10115;BME280;5097;43.260;27.812;2023-04-01T09:03:37;99007.69;;;19.61;49.07
10115;BME280;5097;43.260;27.812;2023-04-01T09:06:37;98999.31;;;19.81;48.86
10115;BME280;5097;43.260;27.812;2023-04-01T09:12:59;99014.03;;;19.52;49.20
10115;BME280;5097;43.260;27.812;2023-04-01T09:16:02;99002.91;;;18.97;51.41
10115;BME280;5097;43.260;27.812;2023-04-01T09:19:15;99002.66;;;19.91;51.45
10115;BME280;5097;43.260;27.812;2023-04-01T09:22:28;98989.59;;;19.63;52.23
10115;BME280;5097;43.260;27.812;2023-04-01T09:25:47;99000.44;;;20.11;49.09
10115;BME280;5097;43.260;27.812;2023-04-01T09:28:42;98999.47;;;19.87;50.38
10115;BME280;5097;43.260;27.812;2023-04-01T09:31:59;98994.41;;;20.09;50.04
10115;BME280;5097;43.260;27.812;2023-04-01T09:35:20;98999.28;;;19.23;51.04
10115;BME280;5097;43.260;27.812;2023-04-01T09:38:20;98981.88;;;19.35;50.83
10115;BME280;5097;43.260;27.812;2023-04-01T09:41:14;98982.41;;;19.88;51.33
10115;BME280;5097;43.260;27.812;2023-04-01T09:44:19;98969.31;;;20.50;48.72
10115;BME280;5097;43.260;27.812;2023-04-01T09:47:41;98963.06;;;20.66;48.18
10115;BME280;5097;43.260;27.812;2023-04-01T09:50:33;98963.25;;;20.56;46.50
10115;BME280;5097;43.260;27.812;2023-04-01T09:53:33;98957.97;;;20.39;48.23
10115;BME280;5097;43.260;27.812;2023-04-01T09:56:45;98940.41;;;20.60;47.64
10115;BME280;5097;43.260;27.812;2023-04-01T09:59:48;98925.94;;;19.90;50.12
10115;BME280;5097;43.260;27.812;2023-04-01T10:03:58;98910.50;;;21.03;47.09
10115;BME280;5097;43.260;27.812;2023-04-01T10:07:05;98903.34;;;20.32;47.72
10115;BME280;5097;43.260;27.812;2023-04-01T10:10:25;98904.03;;;20.26;48.19
10115;BME280;5097;43.260;27.812;2023-04-01T10:13:48;98884.88;;;20.37;47.77
10115;BME280;5097;43.260;27.812;2023-04-01T10:20:32;98889.78;;;19.77;48.42
10115;BME280;5097;43.260;27.812;2023-04-01T10:23:38;98898.00;;;19.68;48.93
10115;BME280;5097;43.260;27.812;2023-04-01T10:26:56;98898.47;;;19.96;48.98
10115;BME280;5097;43.260;27.812;2023-04-01T10:30:36;98899.03;;;20.23;47.68
10115;BME280;5097;43.260;27.812;2023-04-01T10:34:11;98897.34;;;20.22;47.37
10115;BME280;5097;43.260;27.812;2023-04-01T10:37:09;98882.91;;;19.83;49.91
10115;BME280;5097;43.260;27.812;2023-04-01T10:40:19;98863.88;;;19.45;50.21
10115;BME280;5097;43.260;27.812;2023-04-01T10:47:13;98875.22;;;19.55;49.90
10115;BME280;5097;43.260;27.812;2023-04-01T10:50:25;98868.69;;;19.83;49.56
10115;BME280;5097;43.260;27.812;2023-04-01T10:53:38;98839.84;;;20.56;47.35
10115;BME280;5097;43.260;27.812;2023-04-01T10:56:51;98848.81;;;20.08;48.61
10115;BME280;5097;43.260;27.812;2023-04-01T11:00:39;98852.72;;;20.29;48.87
10115;BME280;5097;43.260;27.812;2023-04-01T11:14:56;98813.78;;;21.64;45.13
10115;BME280;5097;43.260;27.812;2023-04-01T11:21:29;98793.78;;;21.14;44.66
10115;BME280;5097;43.260;27.812;2023-04-01T11:24:39;98803.50;;;21.15;45.60
10115;BME280;5097;43.260;27.812;2023-04-01T11:31:21;98809.16;;;21.20;45.09
10115;BME280;5097;43.260;27.812;2023-04-01T11:34:19;98805.28;;;20.84;44.81
10115;BME280;5097;43.260;27.812;2023-04-01T11:37:14;98806.34;;;20.52;46.99
10115;BME280;5097;43.260;27.812;2023-04-01T11:40:28;98804.94;;;20.87;46.66
10115;BME280;5097;43.260;27.812;2023-04-01T11:43:37;98795.31;;;21.31;44.38
10115;BME280;5097;43.260;27.812;2023-04-01T11:46:49;98799.22;;;21.43;46.30
10115;BME280;5097;43.260;27.812;2023-04-01T11:49:49;98786.38;;;21.69;45.26
10115;BME280;5097;43.260;27.812;2023-04-01T11:53:04;98789.94;;;21.91;47.05
10115;BME280;5097;43.260;27.812;2023-04-01T11:56:00;98788.34;;;21.97;47.14
10115;BME280;5097;43.260;27.812;2023-04-01T11:59:11;98773.91;;;22.19;46.16
10115;BME280;5097;43.260;27.812;2023-04-01T12:02:03;98784.28;;;21.41;48.69
10115;BME280;5097;43.260;27.812;2023-04-01T12:05:20;98775.44;;;22.07;47.44
10115;BME280;5097;43.260;27.812;2023-04-01T12:08:15;98780.13;;;22.56;45.36
10115;BME280;5097;43.260;27.812;2023-04-01T12:11:08;98780.47;;;22.47;45.98
10115;BME280;5097;43.260;27.812;2023-04-01T12:14:03;98778.88;;;23.02;44.48
10115;BME280;5097;43.260;27.812;2023-04-01T12:16:57;98748.88;;;23.05;44.25
10115;BME280;5097;43.260;27.812;2023-04-01T12:19:50;98754.69;;;22.81;43.26
10115;BME280;5097;43.260;27.812;2023-04-01T12:22:43;98749.56;;;22.64;44.43
10115;BME280;5097;43.260;27.812;2023-04-01T12:25:51;98753.34;;;22.48;45.53
10115;BME280;5097;43.260;27.812;2023-04-01T12:28:45;98760.41;;;22.13;43.93
10115;BME280;5097;43.260;27.812;2023-04-01T12:31:45;98736.31;;;22.04;43.53
10115;BME280;5097;43.260;27.812;2023-04-01T12:37:47;98741.69;;;22.41;43.73
10115;BME280;5097;43.260;27.812;2023-04-01T12:40:56;98757.44;;;23.16;42.36
10115;BME280;5097;43.260;27.812;2023-04-01T12:44:17;98743.28;;;22.57;43.99
10115;BME280;5097;43.260;27.812;2023-04-01T12:50:38;98741.31;;;21.11;47.25
10115;BME280;5097;43.260;27.812;2023-04-01T12:53:50;98750.91;;;20.67;47.41
10115;BME280;5097;43.260;27.812;2023-04-01T12:56:46;98726.81;;;20.36;48.35
10115;BME280;5097;43.260;27.812;2023-04-01T12:59:42;98733.97;;;20.43;48.81
10115;BME280;5097;43.260;27.812;2023-04-01T13:02:44;98749.81;;;20.30;50.98
10115;BME280;5097;43.260;27.812;2023-04-01T13:05:44;98727.53;;;20.06;52.43
10115;BME280;5097;43.260;27.812;2023-04-01T13:08:38;98704.97;;;19.61;53.87
10115;BME280;5097;43.260;27.812;2023-04-01T13:11:34;98725.19;;;19.72;55.21
10115;BME280;5097;43.260;27.812;2023-04-01T13:14:48;98735.19;;;19.30;55.32
10115;BME280;5097;43.260;27.812;2023-04-01T13:17:38;98722.41;;;19.49;53.34
10115;BME280;5097;43.260;27.812;2023-04-01T13:20:41;98721.69;;;19.63;53.64
10115;BME280;5097;43.260;27.812;2023-04-01T13:23:34;98703.94;;;19.62;53.73
10115;BME280;5097;43.260;27.812;2023-04-01T13:26:26;98725.88;;;20.05;52.41
10115;BME280;5097;43.260;27.812;2023-04-01T13:29:13;98727.91;;;20.50;51.41
10115;BME280;5097;43.260;27.812;2023-04-01T13:32:09;98719.91;;;21.18;49.89
10115;BME280;5097;43.260;27.812;2023-04-01T13:35:10;98718.50;;;21.52;49.16
10115;BME280;5097;43.260;27.812;2023-04-01T13:38:24;98715.00;;;22.24;47.18
10115;BME280;5097;43.260;27.812;2023-04-01T13:41:21;98708.69;;;22.54;45.20
10115;BME280;5097;43.260;27.812;2023-04-01T13:44:14;98693.75;;;22.51;45.50
10115;BME280;5097;43.260;27.812;2023-04-01T13:47:23;98682.50;;;22.41;45.78
10115;BME280;5097;43.260;27.812;2023-04-01T13:50:31;98679.34;;;22.59;45.62
10115;BME280;5097;43.260;27.812;2023-04-01T13:56:32;98673.72;;;22.54;45.42
10115;BME280;5097;43.260;27.812;2023-04-01T13:59:46;98680.63;;;22.63;44.42
10115;BME280;5097;43.260;27.812;2023-04-01T14:02:47;98666.81;;;22.45;45.65
10115;BME280;5097;43.260;27.812;2023-04-01T14:05:48;98682.53;;;22.04;45.96
10115;BME280;5097;43.260;27.812;2023-04-01T14:08:55;98679.41;;;22.22;45.99
10115;BME280;5097;43.260;27.812;2023-04-01T14:11:50;98676.16;;;22.49;45.69
10115;BME280;5097;43.260;27.812;2023-04-01T14:14:48;98668.63;;;21.79;46.86
10115;BME280;5097;43.260;27.812;2023-04-01T14:17:47;98664.88;;;21.58;47.18
10115;BME280;5097;43.260;27.812;2023-04-01T14:20:38;98663.53;;;21.18;47.60
10115;BME280;5097;43.260;27.812;2023-04-01T14:23:48;98668.13;;;21.39;47.06
10115;BME280;5097;43.260;27.812;2023-04-01T14:29:51;98664.72;;;21.00;48.80
10115;BME280;5097;43.260;27.812;2023-04-01T14:32:48;98666.16;;;20.35;50.34
10115;BME280;5097;43.260;27.812;2023-04-01T14:35:37;98645.00;;;19.62;52.05
10115;BME280;5097;43.260;27.812;2023-04-01T14:38:35;98660.06;;;18.67;55.15
10115;BME280;5097;43.260;27.812;2023-04-01T14:41:32;98661.59;;;18.20;56.82
10115;BME280;5097;43.260;27.812;2023-04-01T14:44:38;98667.09;;;18.19;56.79
10115;BME280;5097;43.260;27.812;2023-04-01T14:47:43;98665.09;;;18.46;56.71
10115;BME280;5097;43.260;27.812;2023-04-01T14:50:39;98642.38;;;18.25;57.39
10115;BME280;5097;43.260;27.812;2023-04-01T14:53:28;98631.97;;;17.89;58.63
10115;BME280;5097;43.260;27.812;2023-04-01T14:56:14;98629.34;;;18.47;56.62
10115;BME280;5097;43.260;27.812;2023-04-01T14:59:27;98614.16;;;18.06;58.08
10115;BME280;5097;43.260;27.812;2023-04-01T15:02:28;98603.78;;;18.03;58.00
10115;BME280;5097;43.260;27.812;2023-04-01T15:05:26;98595.09;;;19.06;55.75
10115;BME280;5097;43.260;27.812;2023-04-01T15:08:17;98596.91;;;19.46;53.64
10115;BME280;5097;43.260;27.812;2023-04-01T15:11:21;98603.63;;;19.41;54.00
10115;BME280;5097;43.260;27.812;2023-04-01T15:14:28;98615.41;;;18.76;56.38
10115;BME280;5097;43.260;27.812;2023-04-01T15:17:31;98615.72;;;18.81;55.35
10115;BME280;5097;43.260;27.812;2023-04-01T15:20:42;98611.75;;;19.25;53.93
10115;BME280;5097;43.260;27.812;2023-04-01T15:23:47;98616.66;;;19.45;53.37
10115;BME280;5097;43.260;27.812;2023-04-01T15:27:00;98610.75;;;19.18;54.26
10115;BME280;5097;43.260;27.812;2023-04-01T15:29:59;98595.06;;;19.15;53.88
10115;BME280;5097;43.260;27.812;2023-04-01T15:32:56;98597.81;;;18.82;54.98
10115;BME280;5097;43.260;27.812;2023-04-01T15:35:47;98590.25;;;19.02;54.67
10115;BME280;5097;43.260;27.812;2023-04-01T15:38:40;98579.72;;;19.00;54.71
10115;BME280;5097;43.260;27.812;2023-04-01T15:41:35;98577.91;;;19.01;54.68
10115;BME280;5097;43.260;27.812;2023-04-01T15:44:43;98570.06;;;18.10;56.72
10115;BME280;5097;43.260;27.812;2023-04-01T15:47:42;98568.53;;;17.66;58.16
10115;BME280;5097;43.260;27.812;2023-04-01T15:51:07;98573.41;;;17.12;60.17
10115;BME280;5097;43.260;27.812;2023-04-01T15:57:40;98590.97;;;16.53;62.35
10115;BME280;5097;43.260;27.812;2023-04-01T16:00:30;98599.97;;;16.87;60.50
10115;BME280;5097;43.260;27.812;2023-04-01T16:03:20;98605.34;;;16.34;62.06
10115;BME280;5097;43.260;27.812;2023-04-01T16:06:17;98617.41;;;16.02;63.51
10115;BME280;5097;43.260;27.812;2023-04-01T16:09:22;98598.94;;;16.27;62.52
10115;BME280;5097;43.260;27.812;2023-04-01T16:12:17;98633.03;;;16.41;62.02
10115;BME280;5097;43.260;27.812;2023-04-01T16:15:12;98622.94;;;16.53;62.19
10115;BME280;5097;43.260;27.812;2023-04-01T16:18:21;98638.78;;;16.55;61.91
10115;BME280;5097;43.260;27.812;2023-04-01T16:21:12;98632.19;;;16.67;61.54
10115;BME280;5097;43.260;27.812;2023-04-01T16:24:00;98633.50;;;16.37;62.54
10115;BME280;5097;43.260;27.812;2023-04-01T16:26:52;98632.31;;;16.39;62.27
10115;BME280;5097;43.260;27.812;2023-04-01T16:29:43;98615.06;;;16.44;62.35